Creston, Wyoming
Current Conditions -  °F | °C
As of 8:53 AM on Monday 24 Nov 2014 (Local Time) from KRWL Reporting Station
Clear Clear  
Wind Chill:   Ceiling: Unl
Heat Index: 23°   Visibility: 10mi
Dew Point: 15°   Wind: 21mph
Humidity: 72%   Direction: 290°WNW
Pressure: 29.99"   Gusts: 29mph
Location:  41.7532°N, 107.372°W
Report Text: KRWL 241553Z AUTO 29018G25KT 10SM CLR M05/M09 A2999 RMK AO2 PK WND 29031/1537 SLP194 T10501094
Loading
Personal Weather Stations






























Interactive Weather Map New forecast layout! Learn more

10-Day Weather Forecast

Advertisements
Track Severe Weather on mobile